Time;durP1;ratioP1;P1;durP2;ratioP2;P2;SDS_P1;SDS_P2;PMS_P1;PMS_P2;Temp;Humidity;BMP_temperature;BMP_pressure;BME280_temperature;BME280_humidity;BME280_pressure;Samples;Min_cycle;Max_cycle;Signal;HPM_P1;HPM_P2
2023/02/16 00:01:14;;;;;;;25.43;8.97;;;;;;;;;;5092997;28;20028;-76
2023/02/16 00:03:39;;;;;;;30.93;10.27;;;;;;;;;;5080216;28;20028;-76
2023/02/16 00:06:04;;;;;;;35.50;11.33;;;;;;;;;;5092665;28;20026;-76
2023/02/16 00:08:30;;;;;;;23.13;9.13;;;;;;;;;;5093075;28;20466;-76
2023/02/16 00:13:46;;;;;;;24.37;9.13;;;;;;;;;;5071647;28;20104;-76
2023/02/16 00:16:16;;;;;;;22.63;9.30;;;;;;;;;;5072603;28;20015;-76
2023/02/16 00:18:41;;;;;;;28.00;10.57;;;;;;;;;;5072381;28;20028;-76
2023/02/16 00:21:06;;;;;;;24.13;8.27;;;;;;;;;;5072174;28;20024;-76
2023/02/16 00:23:31;;;;;;;28.10;9.43;;;;;;;;;;5071605;28;20027;-76
2023/02/16 00:25:57;;;;;;;26.57;9.87;;;;;;;;;;5071479;28;20020;-76
2023/02/16 00:28:22;;;;;;;26.33;10.07;;;;;;;;;;5072173;28;20513;-76
2023/02/16 00:30:49;;;;;;;22.03;8.73;;;;;;;;;;5071854;28;20028;-76
2023/02/16 00:33:15;;;;;;;23.93;9.90;;;;;;;;;;5072047;28;20070;-76
2023/02/16 00:35:41;;;;;;;29.90;10.10;;;;;;;;;;5071047;28;20071;-76
2023/02/16 00:38:06;;;;;;;29.13;9.50;;;;;;;;;;5072008;28;20474;-76
2023/02/16 00:40:32;;;;;;;32.67;10.60;;;;;;;;;;5070236;28;20016;-76
2023/02/16 00:42:57;;;;;;;29.07;10.53;;;;;;;;;;5070990;28;20028;-76
2023/02/16 00:45:24;;;;;;;29.20;10.47;;;;;;;;;;5070279;28;20025;-76
2023/02/16 00:47:50;;;;;;;25.63;10.40;;;;;;;;;;5069657;28;20070;-76
2023/02/16 00:50:19;;;;;;;28.97;10.50;;;;;;;;;;5070335;28;20074;-76
2023/02/16 00:52:47;;;;;;;26.77;9.63;;;;;;;;;;5070530;28;20073;-76
2023/02/16 00:55:19;;;;;;;25.13;9.63;;;;;;;;;;5071533;28;20065;-76
2023/02/16 00:57:47;;;;;;;23.08;9.10;;;;;;;;;;5070339;28;20028;-76
2023/02/16 01:00:21;;;;;;;30.83;9.67;;;;;;;;;;5070578;28;20033;-76
2023/02/16 01:02:48;;;;;;;25.17;9.90;;;;;;;;;;5071691;28;20099;-76
2023/02/16 01:05:14;;;;;;;33.67;9.40;;;;;;;;;;5071284;28;20372;-76
2023/02/16 01:13:07;;;;;;;25.23;8.70;;;;;;;;;;5073727;28;20035;-76
2023/02/16 01:15:33;;;;;;;23.60;8.87;;;;;;;;;;5091535;28;20328;-76
2023/02/16 01:17:58;;;;;;;24.77;9.17;;;;;;;;;;5077527;28;20066;-76
2023/02/16 01:20:24;;;;;;;24.10;9.40;;;;;;;;;;5089847;28;20539;-76
2023/02/16 01:22:49;;;;;;;30.13;10.13;;;;;;;;;;5091408;28;20043;-76
2023/02/16 01:25:15;;;;;;;23.43;8.80;;;;;;;;;;5079357;28;20561;-76
2023/02/16 01:27:40;;;;;;;24.77;9.43;;;;;;;;;;5081412;28;20036;-76
2023/02/16 01:30:07;;;;;;;28.47;10.10;;;;;;;;;;5072168;28;20028;-76
2023/02/16 01:32:32;;;;;;;21.33;8.67;;;;;;;;;;5091397;28;20020;-76
2023/02/16 01:34:58;;;;;;;26.50;9.83;;;;;;;;;;5090913;28;20161;-76
2023/02/16 01:37:23;;;;;;;25.53;9.20;;;;;;;;;;5082909;28;20045;-76
2023/02/16 01:39:49;;;;;;;27.27;9.60;;;;;;;;;;5090937;28;20031;-76
2023/02/16 01:42:18;;;;;;;24.83;9.77;;;;;;;;;;5089245;28;20022;-76
2023/02/16 01:44:47;;;;;;;27.30;9.47;;;;;;;;;;5083013;28;20017;-76
2023/02/16 01:47:31;;;;;;;29.13;9.40;;;;;;;;;;5085721;28;20026;-76
2023/02/16 01:49:56;;;;;;;25.20;9.20;;;;;;;;;;5083960;28;20039;-76
2023/02/16 01:52:26;;;;;;;21.50;9.13;;;;;;;;;;5091118;28;20452;-76
2023/02/16 01:54:51;;;;;;;24.10;9.43;;;;;;;;;;5090847;28;20024;-76
2023/02/16 01:57:22;;;;;;;23.87;8.03;;;;;;;;;;5089857;28;20111;-76
2023/02/16 01:59:47;;;;;;;23.08;8.73;;;;;;;;;;5089574;28;20051;-76
2023/02/16 02:02:12;;;;;;;27.50;9.50;;;;;;;;;;5084656;28;20055;-76
2023/02/16 02:07:27;;;;;;;29.60;9.83;;;;;;;;;;5090785;28;20113;-76
2023/02/16 02:09:59;;;;;;;24.47;8.90;;;;;;;;;;5083882;28;20035;-76
2023/02/16 02:12:31;;;;;;;24.77;9.33;;;;;;;;;;5079800;28;20032;-76
2023/02/16 02:14:56;;;;;;;24.60;8.77;;;;;;;;;;5090827;28;20358;-76
2023/02/16 02:17:22;;;;;;;28.23;9.70;;;;;;;;;;5091038;28;20103;-76
2023/02/16 02:19:50;;;;;;;32.67;9.33;;;;;;;;;;5076599;28;20040;-76
2023/02/16 02:25:34;;;;;;;26.53;9.17;;;;;;;;;;5091716;28;20093;-73
2023/02/16 02:28:02;;;;;;;26.00;9.07;;;;;;;;;;5091726;28;20099;-74
2023/02/16 02:30:33;;;;;;;27.83;10.03;;;;;;;;;;5091402;28;20406;-74
2023/02/16 02:33:10;;;;;;;23.07;9.13;;;;;;;;;;5080306;28;20043;-74
2023/02/16 02:35:54;;;;;;;22.57;9.60;;;;;;;;;;5091002;28;20020;-74
2023/02/16 02:38:38;;;;;;;24.83;9.53;;;;;;;;;;5091637;28;20352;-74
2023/02/16 02:44:21;;;;;;;23.23;8.98;;;;;;;;;;5071529;28;20347;-75
2023/02/16 02:46:46;;;;;;;24.10;10.20;;;;;;;;;;5083698;28;20397;-74
2023/02/16 02:49:12;;;;;;;24.30;9.17;;;;;;;;;;5089761;28;20016;-74
2023/02/16 02:51:39;;;;;;;25.23;8.50;;;;;;;;;;5089825;28;20024;-74
2023/02/16 03:02:35;;;;;;;24.17;9.57;;;;;;;;;;5095026;28;20047;-74
2023/02/16 03:05:02;;;;;;;23.93;9.50;;;;;;;;;;5087472;28;20016;-74
2023/02/16 03:07:45;;;;;;;28.73;10.63;;;;;;;;;;5083682;28;20414;-74
2023/02/16 03:12:55;;;;;;;27.03;8.93;;;;;;;;;;5075819;28;20340;-74
2023/02/16 03:15:22;;;;;;;35.17;10.10;;;;;;;;;;5072060;28;20495;-74
2023/02/16 03:31:29;;;;;;;28.67;9.57;;;;;;;;;;5074255;28;20502;-74
2023/02/16 03:33:54;;;;;;;28.77;9.33;;;;;;;;;;5071491;28;20437;-74
2023/02/16 03:36:24;;;;;;;30.97;10.37;;;;;;;;;;5073738;28;20013;-74
2023/02/16 03:38:50;;;;;;;26.17;10.37;;;;;;;;;;5072941;28;20472;-74
2023/02/16 03:41:15;;;;;;;27.70;10.10;;;;;;;;;;5074063;28;20440;-74
2023/02/16 03:43:40;;;;;;;22.87;8.77;;;;;;;;;;5073799;28;20044;-74
2023/02/16 03:46:06;;;;;;;32.57;9.43;;;;;;;;;;5062242;28;20020;-74
2023/02/16 03:48:31;;;;;;;31.60;10.90;;;;;;;;;;5074053;28;20103;-74
2023/02/16 03:50:56;;;;;;;29.30;9.87;;;;;;;;;;5072423;28;20040;-74
2023/02/16 03:53:21;;;;;;;18.17;7.80;;;;;;;;;;5073860;28;20508;-74
2023/02/16 03:55:47;;;;;;;29.20;10.00;;;;;;;;;;5072084;28;20029;-74
2023/02/16 03:58:15;;;;;;;23.00;8.47;;;;;;;;;;5073037;28;20017;-74
2023/02/16 04:00:40;;;;;;;23.77;8.50;;;;;;;;;;5072303;28;20120;-74
2023/02/16 04:03:07;;;;;;;21.57;9.13;;;;;;;;;;5072001;28;20044;-74
2023/02/16 04:05:32;;;;;;;24.90;9.50;;;;;;;;;;5073514;28;20020;-74
2023/02/16 04:07:58;;;;;;;32.43;10.20;;;;;;;;;;5071782;28;20017;-74
2023/02/16 04:10:23;;;;;;;27.50;10.37;;;;;;;;;;5073819;28;20372;-74
2023/02/16 04:12:48;;;;;;;23.77;8.77;;;;;;;;;;5072192;28;20032;-74
2023/02/16 04:15:15;;;;;;;24.47;8.73;;;;;;;;;;5072183;28;20431;-74
2023/02/16 04:17:41;;;;;;;23.63;9.53;;;;;;;;;;5073623;28;20387;-74
2023/02/16 04:20:08;;;;;;;22.37;9.17;;;;;;;;;;5071584;28;20029;-74
2023/02/16 04:22:33;;;;;;;23.10;8.27;;;;;;;;;;5073170;28;20020;-75
2023/02/16 04:24:58;;;;;;;20.93;7.60;;;;;;;;;;5072707;28;20040;-74
2023/02/16 04:27:23;;;;;;;23.73;8.57;;;;;;;;;;5071002;28;20051;-74
2023/02/16 04:29:48;;;;;;;20.97;8.50;;;;;;;;;;5073053;28;20036;-74
2023/02/16 04:32:13;;;;;;;21.13;8.17;;;;;;;;;;5073213;28;20469;-74
2023/02/16 04:34:39;;;;;;;20.57;8.77;;;;;;;;;;5072722;28;20482;-74
2023/02/16 04:37:04;;;;;;;22.97;9.40;;;;;;;;;;5072872;28;20165;-74
2023/02/16 04:39:30;;;;;;;23.43;9.30;;;;;;;;;;5071987;28;20032;-74
2023/02/16 04:41:55;;;;;;;22.07;8.50;;;;;;;;;;5071414;28;20035;-74
2023/02/16 04:44:20;;;;;;;21.87;7.70;;;;;;;;;;5071679;28;20015;-74
2023/02/16 04:46:45;;;;;;;20.07;7.97;;;;;;;;;;5071245;28;20408;-74
2023/02/16 04:49:11;;;;;;;27.23;9.07;;;;;;;;;;5072766;28;20030;-74
2023/02/16 04:51:38;;;;;;;22.03;8.50;;;;;;;;;;5071845;28;20025;-74
2023/02/16 04:54:03;;;;;;;22.73;9.53;;;;;;;;;;5072462;28;20024;-74
2023/02/16 04:56:29;;;;;;;26.40;9.03;;;;;;;;;;5072568;28;20023;-74
2023/02/16 04:58:54;;;;;;;28.00;8.07;;;;;;;;;;5072082;28;20113;-74
2023/02/16 05:01:20;;;;;;;22.93;8.53;;;;;;;;;;5072552;28;20405;-74
2023/02/16 05:03:46;;;;;;;21.93;8.63;;;;;;;;;;5071873;28;20024;-74
2023/02/16 05:06:11;;;;;;;23.47;8.37;;;;;;;;;;5070747;28;20388;-74
2023/02/16 05:08:36;;;;;;;23.10;7.77;;;;;;;;;;5070804;28;20028;-74
2023/02/16 05:16:29;;;;;;;22.43;9.10;;;;;;;;;;5071172;28;20070;-74
2023/02/16 05:18:54;;;;;;;24.57;8.37;;;;;;;;;;5070290;28;20688;-74
2023/02/16 05:21:32;;;;;;;27.80;9.03;;;;;;;;;;5070256;28;20485;-74
2023/02/16 05:24:01;;;;;;;21.93;9.33;;;;;;;;;;5071906;28;20017;-74
2023/02/16 05:26:27;;;;;;;22.23;7.77;;;;;;;;;;5072106;28;20065;-74
2023/02/16 05:28:52;;;;;;;22.90;8.80;;;;;;;;;;5071173;28;20556;-74
2023/02/16 05:31:17;;;;;;;19.20;8.37;;;;;;;;;;5070595;28;20024;-75
2023/02/16 05:33:42;;;;;;;20.67;8.63;;;;;;;;;;5070762;28;20031;-74
2023/02/16 05:36:08;;;;;;;20.30;8.20;;;;;;;;;;5071862;28;20062;-74
2023/02/16 05:38:33;;;;;;;21.93;8.27;;;;;;;;;;5071004;28;20027;-74
2023/02/16 05:40:58;;;;;;;28.87;7.57;;;;;;;;;;5071516;28;20123;-74
2023/02/16 05:43:24;;;;;;;22.63;9.13;;;;;;;;;;5071700;28;20078;-74
2023/02/16 05:45:49;;;;;;;23.90;8.47;;;;;;;;;;5071313;28;20051;-74
2023/02/16 05:48:14;;;;;;;22.10;8.10;;;;;;;;;;5071340;28;20020;-74
2023/02/16 05:50:39;;;;;;;17.37;6.97;;;;;;;;;;5071191;28;20047;-74
2023/02/16 05:53:04;;;;;;;25.20;8.03;;;;;;;;;;5070517;28;20029;-74
2023/02/16 05:55:30;;;;;;;19.90;8.20;;;;;;;;;;5070582;28;20478;-75
2023/02/16 05:57:55;;;;;;;20.90;9.33;;;;;;;;;;5070079;28;20038;-74
2023/02/16 06:00:20;;;;;;;23.67;8.43;;;;;;;;;;5071759;28;20020;-74
2023/02/16 06:02:45;;;;;;;33.40;10.40;;;;;;;;;;5070696;28;20480;-74
2023/02/16 06:05:10;;;;;;;23.20;9.00;;;;;;;;;;5071214;28;20059;-74
2023/02/16 06:07:36;;;;;;;23.50;8.73;;;;;;;;;;5071540;28;20013;-74
2023/02/16 06:10:01;;;;;;;22.27;8.10;;;;;;;;;;5071559;28;20020;-74
2023/02/16 06:12:26;;;;;;;26.17;8.27;;;;;;;;;;5071621;28;20035;-74
2023/02/16 06:14:52;;;;;;;23.43;8.03;;;;;;;;;;5070457;28;20373;-75
2023/02/16 06:17:17;;;;;;;18.77;8.27;;;;;;;;;;5071527;28;20042;-75
2023/02/16 06:19:42;;;;;;;22.10;8.32;;;;;;;;;;5071075;28;20028;-74
2023/02/16 06:22:07;;;;;;;26.92;9.50;;;;;;;;;;5070011;28;20097;-75
2023/02/16 06:24:32;;;;;;;25.40;8.43;;;;;;;;;;5071234;28;20056;-74
2023/02/16 06:26:58;;;;;;;25.77;10.27;;;;;;;;;;5068568;28;20020;-74
2023/02/16 06:29:23;;;;;;;23.73;8.77;;;;;;;;;;5071623;28;20028;-74
2023/02/16 06:31:48;;;;;;;24.90;8.77;;;;;;;;;;5073230;28;20016;-74
2023/02/16 06:34:13;;;;;;;25.70;10.67;;;;;;;;;;5074035;28;20025;-74
2023/02/16 06:36:38;;;;;;;28.90;9.30;;;;;;;;;;5075190;28;20464;-74
2023/02/16 06:39:04;;;;;;;18.47;7.83;;;;;;;;;;5072471;28;20371;-74
2023/02/16 06:41:36;;;;;;;16.83;7.70;;;;;;;;;;5075032;28;20116;-74
2023/02/16 06:44:03;;;;;;;18.10;7.10;;;;;;;;;;5073480;28;20452;-74
2023/02/16 06:46:28;;;;;;;20.67;7.73;;;;;;;;;;5068710;28;20025;-74
2023/02/16 06:48:54;;;;;;;25.37;8.27;;;;;;;;;;5068103;28;20016;-75
2023/02/16 06:51:19;;;;;;;20.97;9.60;;;;;;;;;;5072947;28;20081;-75
2023/02/16 06:53:44;;;;;;;23.23;9.97;;;;;;;;;;5072841;28;20020;-75
2023/02/16 06:56:10;;;;;;;28.13;9.93;;;;;;;;;;5069316;28;20029;-75
2023/02/16 06:58:35;;;;;;;27.03;8.93;;;;;;;;;;5072312;28;20016;-75
2023/02/16 07:01:00;;;;;;;25.87;9.37;;;;;;;;;;5072368;28;20017;-75
2023/02/16 07:03:25;;;;;;;20.23;8.80;;;;;;;;;;5071990;28;20155;-75
2023/02/16 07:05:50;;;;;;;28.17;8.97;;;;;;;;;;5070556;28;20016;-75
2023/02/16 07:08:15;;;;;;;17.57;8.07;;;;;;;;;;5073043;28;20107;-75
2023/02/16 07:10:45;;;;;;;22.23;7.93;;;;;;;;;;5073056;28;20039;-75
2023/02/16 07:13:10;;;;;;;24.87;8.33;;;;;;;;;;5072890;28;20016;-75
2023/02/16 07:15:35;;;;;;;20.40;8.77;;;;;;;;;;5072209;28;20031;-75
2023/02/16 07:18:00;;;;;;;21.50;7.47;;;;;;;;;;5074394;28;20048;-75
2023/02/16 07:20:26;;;;;;;23.20;9.27;;;;;;;;;;5072622;28;20032;-75
2023/02/16 07:22:52;;;;;;;22.67;8.00;;;;;;;;;;5073730;28;20024;-75
2023/02/16 07:25:17;;;;;;;26.70;10.30;;;;;;;;;;5072872;28;20016;-75
2023/02/16 07:27:42;;;;;;;36.47;10.97;;;;;;;;;;5073624;28;20027;-75
2023/02/16 07:30:08;;;;;;;30.80;10.97;;;;;;;;;;5072624;28;20012;-75
2023/02/16 07:32:33;;;;;;;27.07;10.17;;;;;;;;;;5072661;28;20379;-75
2023/02/16 07:34:58;;;;;;;26.40;10.13;;;;;;;;;;5071353;28;20028;-75
2023/02/16 07:37:23;;;;;;;27.67;9.87;;;;;;;;;;5074094;28;20066;-75
2023/02/16 07:39:48;;;;;;;22.53;9.07;;;;;;;;;;5072254;28;20016;-75
2023/02/16 07:42:14;;;;;;;23.90;9.03;;;;;;;;;;5069598;28;20100;-75
2023/02/16 07:44:39;;;;;;;35.40;11.00;;;;;;;;;;5069305;28;20056;-74
2023/02/16 07:47:04;;;;;;;27.20;10.70;;;;;;;;;;5072268;28;20052;-75
2023/02/16 07:49:29;;;;;;;28.47;10.70;;;;;;;;;;5073942;28;20014;-75
2023/02/16 07:51:55;;;;;;;31.93;8.53;;;;;;;;;;5071874;28;20032;-75
2023/02/16 07:54:20;;;;;;;24.50;8.40;;;;;;;;;;5071855;28;20095;-74
2023/02/16 07:56:45;;;;;;;23.70;9.53;;;;;;;;;;5073320;28;20029;-75
2023/02/16 07:59:13;;;;;;;26.97;10.17;;;;;;;;;;5072771;28;20458;-75
2023/02/16 08:01:40;;;;;;;31.00;10.93;;;;;;;;;;5072670;28;20073;-75
2023/02/16 08:04:06;;;;;;;25.57;9.43;;;;;;;;;;5071794;28;20029;-75
2023/02/16 08:06:32;;;;;;;26.17;9.10;;;;;;;;;;5070864;28;20074;-75
2023/02/16 08:08:57;;;;;;;21.23;8.23;;;;;;;;;;5072203;28;20024;-75
2023/02/16 08:11:23;;;;;;;24.50;8.83;;;;;;;;;;5070654;28;20486;-75
2023/02/16 08:13:49;;;;;;;17.53;7.47;;;;;;;;;;5073331;28;20012;-75
2023/02/16 08:16:15;;;;;;;28.37;10.23;;;;;;;;;;5068615;28;20017;-75
2023/02/16 08:18:41;;;;;;;22.60;8.93;;;;;;;;;;5072707;28;20113;-75
2023/02/16 08:21:32;;;;;;;23.27;9.27;;;;;;;;;;5069920;28;20401;-75
2023/02/16 08:23:58;;;;;;;22.03;8.70;;;;;;;;;;5068768;28;20031;-75
2023/02/16 08:26:25;;;;;;;24.40;10.00;;;;;;;;;;5069941;28;20489;-74
2023/02/16 08:28:51;;;;;;;22.17;9.03;;;;;;;;;;5073216;28;20096;-75
2023/02/16 08:31:18;;;;;;;28.87;9.63;;;;;;;;;;5067226;28;20020;-75
2023/02/16 08:33:43;;;;;;;23.00;9.13;;;;;;;;;;5072046;28;20645;-77
2023/02/16 08:36:19;;;;;;;25.90;8.83;;;;;;;;;;5069090;28;20017;-75
2023/02/16 08:38:45;;;;;;;22.63;9.37;;;;;;;;;;5070751;28;20048;-76
2023/02/16 08:41:10;;;;;;;24.03;9.77;;;;;;;;;;5070589;28;20109;-75
2023/02/16 08:43:35;;;;;;;26.77;8.60;;;;;;;;;;5068066;28;20024;-75
2023/02/16 08:46:01;;;;;;;20.33;8.57;;;;;;;;;;5070312;28;20017;-75
2023/02/16 08:48:27;;;;;;;29.73;10.07;;;;;;;;;;5066671;28;20077;-75
2023/02/16 08:50:53;;;;;;;31.43;11.90;;;;;;;;;;5068045;28;20459;-75
2023/02/16 08:53:20;;;;;;;32.80;11.13;;;;;;;;;;5067343;28;20069;-75
2023/02/16 08:55:53;;;;;;;23.73;9.60;;;;;;;;;;5071005;28;20478;-75
2023/02/16 08:58:18;;;;;;;24.43;10.63;;;;;;;;;;5068601;28;20024;-75
2023/02/16 09:00:43;;;;;;;29.07;11.23;;;;;;;;;;5066728;28;20031;-75
2023/02/16 09:03:08;;;;;;;21.10;8.90;;;;;;;;;;5069356;28;20027;-75
2023/02/16 09:05:34;;;;;;;27.27;9.20;;;;;;;;;;5070514;28;20016;-75
2023/02/16 09:07:59;;;;;;;27.10;8.73;;;;;;;;;;5071227;28;20020;-77
2023/02/16 09:10:24;;;;;;;28.33;9.53;;;;;;;;;;5070245;28;20031;-74
2023/02/16 09:12:49;;;;;;;25.07;10.33;;;;;;;;;;5070611;28;20081;-75
2023/02/16 09:15:15;;;;;;;23.63;8.57;;;;;;;;;;5070086;28;20028;-75
2023/02/16 09:17:44;;;;;;;31.47;10.70;;;;;;;;;;5072064;28;20464;-75
2023/02/16 09:20:11;;;;;;;25.13;8.33;;;;;;;;;;5067634;28;20028;-75
2023/02/16 09:22:36;;;;;;;22.47;8.17;;;;;;;;;;5070827;28;20017;-74
2023/02/16 09:25:02;;;;;;;26.47;9.03;;;;;;;;;;5071914;28;20013;-75
2023/02/16 09:27:27;;;;;;;25.27;9.57;;;;;;;;;;5070798;28;20111;-75
2023/02/16 09:29:52;;;;;;;26.23;10.07;;;;;;;;;;5069504;28;20666;-75
2023/02/16 09:32:17;;;;;;;21.67;8.10;;;;;;;;;;5071940;28;20029;-74
2023/02/16 09:34:48;;;;;;;24.37;9.13;;;;;;;;;;5068143;28;21503;-75
2023/02/16 09:37:14;;;;;;;20.90;8.70;;;;;;;;;;5068058;28;20036;-74
2023/02/16 09:39:39;;;;;;;32.13;10.20;;;;;;;;;;5068114;28;20504;-75
2023/02/16 09:42:04;;;;;;;20.70;8.57;;;;;;;;;;5062807;28;20376;-75
2023/02/16 09:44:48;;;;;;;25.07;8.77;;;;;;;;;;5069485;28;20013;-74
2023/02/16 09:47:20;;;;;;;22.27;8.27;;;;;;;;;;5069230;28;20154;-75
2023/02/16 09:49:47;;;;;;;19.77;7.65;;;;;;;;;;5066153;28;20041;-76
2023/02/16 09:52:19;;;;;;;20.48;8.25;;;;;;;;;;5069031;28;20379;-76
2023/02/16 09:54:48;;;;;;;19.27;7.70;;;;;;;;;;5071750;28;20375;-76
2023/02/16 09:57:16;;;;;;;18.50;7.60;;;;;;;;;;5070135;28;20058;-76
2023/02/16 09:59:51;;;;;;;25.63;9.57;;;;;;;;;;5057570;28;20012;-73
2023/02/16 10:02:25;;;;;;;23.17;8.83;;;;;;;;;;5065976;28;20020;-73
2023/02/16 10:05:07;;;;;;;20.83;7.13;;;;;;;;;;5056153;28;20029;-76
2023/02/16 10:07:39;;;;;;;20.77;7.57;;;;;;;;;;5070021;28;20116;-75
2023/02/16 10:10:05;;;;;;;21.98;8.95;;;;;;;;;;5068768;28;20029;-72
2023/02/16 10:12:32;;;;;;;22.63;8.77;;;;;;;;;;5069606;28;20029;-72
2023/02/16 10:15:15;;;;;;;26.93;9.33;;;;;;;;;;5060644;28;20028;-72
2023/02/16 10:17:43;;;;;;;21.05;7.80;;;;;;;;;;5082137;28;20029;-72
2023/02/16 10:20:09;;;;;;;23.60;10.03;;;;;;;;;;5070806;28;20103;-75
2023/02/16 10:22:39;;;;;;;23.10;9.50;;;;;;;;;;5066635;28;20032;-75
2023/02/16 10:25:05;;;;;;;31.37;8.97;;;;;;;;;;5064027;28;20103;-75
2023/02/16 10:27:38;;;;;;;24.50;9.33;;;;;;;;;;5070985;28;20103;-75
2023/02/16 10:30:10;;;;;;;32.00;11.03;;;;;;;;;;5087806;28;20039;-75
2023/02/16 10:32:39;;;;;;;25.97;9.87;;;;;;;;;;5075046;28;20033;-75
2023/02/16 10:35:17;;;;;;;27.80;11.30;;;;;;;;;;5079121;28;20031;-75
2023/02/16 10:37:53;;;;;;;26.03;10.30;;;;;;;;;;5091642;28;20020;-75
2023/02/16 10:40:38;;;;;;;26.43;11.27;;;;;;;;;;5091206;28;20032;-75
2023/02/16 10:43:06;;;;;;;27.90;10.97;;;;;;;;;;5066047;28;20036;-75
2023/02/16 10:45:34;;;;;;;25.60;10.27;;;;;;;;;;5068075;28;20012;-75
2023/02/16 10:48:00;;;;;;;29.23;12.47;;;;;;;;;;5071378;28;20024;-75
2023/02/16 10:50:28;;;;;;;33.03;11.83;;;;;;;;;;5071053;28;20039;-77
2023/02/16 10:52:56;;;;;;;31.73;10.30;;;;;;;;;;5060802;28;20055;-75
2023/02/16 10:55:22;;;;;;;27.73;10.23;;;;;;;;;;5069232;28;20522;-76
2023/02/16 10:57:58;;;;;;;17.35;6.80;;;;;;;;;;5065949;28;20048;-75
2023/02/16 11:00:47;;;;;;;16.87;7.20;;;;;;;;;;5071237;28;20020;-75
2023/02/16 11:03:14;;;;;;;21.10;9.27;;;;;;;;;;5067331;28;20025;-75
2023/02/16 11:05:40;;;;;;;22.63;8.60;;;;;;;;;;5069704;28;20029;-75
2023/02/16 11:08:06;;;;;;;24.83;9.82;;;;;;;;;;5070658;28;20012;-75
2023/02/16 11:10:47;;;;;;;24.48;8.98;;;;;;;;;;5070602;28;20013;-75
2023/02/16 11:13:25;;;;;;;25.37;8.50;;;;;;;;;;5066838;28;20034;-75
2023/02/16 11:15:54;;;;;;;16.60;6.63;;;;;;;;;;5068451;28;20073;-76
2023/02/16 11:18:29;;;;;;;29.08;10.55;;;;;;;;;;5073305;28;20084;-75
2023/02/16 11:20:55;;;;;;;31.20;11.02;;;;;;;;;;5072952;28;20039;-75
2023/02/16 11:23:23;;;;;;;27.33;11.67;;;;;;;;;;5072790;28;20024;-75
2023/02/16 11:26:07;;;;;;;22.87;9.57;;;;;;;;;;5071974;28;20029;-74
2023/02/16 11:28:34;;;;;;;13.02;6.75;;;;;;;;;;5073981;28;20021;-74
2023/02/16 11:31:18;;;;;;;10.60;4.78;;;;;;;;;;5067596;28;20613;-74
2023/02/16 11:34:03;;;;;;;22.35;8.68;;;;;;;;;;5067857;28;20071;-74
2023/02/16 11:36:32;;;;;;;18.85;7.78;;;;;;;;;;5040330;28;20458;-74
2023/02/16 11:39:12;;;;;;;21.30;9.15;;;;;;;;;;5072884;28;20462;-74
2023/02/16 11:41:42;;;;;;;18.65;8.40;;;;;;;;;;5072401;28;20044;-74
2023/02/16 11:44:19;;;;;;;16.42;7.03;;;;;;;;;;5070632;28;20017;-74
2023/02/16 11:46:45;;;;;;;15.50;6.32;;;;;;;;;;5068434;28;20029;-74
2023/02/16 11:49:33;;;;;;;18.48;7.15;;;;;;;;;;5070226;28;20023;-75
2023/02/16 11:51:59;;;;;;;24.67;8.05;;;;;;;;;;5067885;28;20443;-74
2023/02/16 11:54:26;;;;;;;18.17;7.32;;;;;;;;;;5069983;28;20016;-75
2023/02/16 11:57:05;;;;;;;22.20;10.18;;;;;;;;;;5072148;28;20024;-74
2023/02/16 11:59:34;;;;;;;15.60;7.07;;;;;;;;;;5072075;28;20036;-75
2023/02/16 12:02:18;;;;;;;24.02;9.57;;;;;;;;;;5073230;28;20475;-74
2023/02/16 12:04:52;;;;;;;21.90;8.82;;;;;;;;;;5071154;28;20024;-77
2023/02/16 12:07:42;;;;;;;14.40;5.10;;;;;;;;;;5073338;28;20021;-77
2023/02/16 12:10:07;;;;;;;23.80;9.23;;;;;;;;;;5063277;28;20389;-74
2023/02/16 12:12:39;;;;;;;6.63;2.35;;;;;;;;;;5070686;28;20039;-75
2023/02/16 12:15:13;;;;;;;3.13;1.88;;;;;;;;;;5072017;28;20374;-75
2023/02/16 12:17:53;;;;;;;1.45;1.05;;;;;;;;;;5072070;28;20620;-75
2023/02/16 12:20:37;;;;;;;16.95;6.50;;;;;;;;;;5069820;28;20081;-75
2023/02/16 12:23:21;;;;;;;9.95;4.93;;;;;;;;;;5070783;28;20483;-75
2023/02/16 12:25:50;;;;;;;6.88;3.22;;;;;;;;;;5070230;28;20016;-75
2023/02/16 12:28:38;;;;;;;14.30;5.07;;;;;;;;;;5069490;28;20012;-75
2023/02/16 12:31:04;;;;;;;16.60;6.93;;;;;;;;;;5070268;28;20031;-75
2023/02/16 12:33:48;;;;;;;5.47;3.03;;;;;;;;;;5068098;28;20016;-75
2023/02/16 12:36:22;;;;;;;14.10;5.68;;;;;;;;;;5069824;28;20191;-75
2023/02/16 12:39:01;;;;;;;13.80;5.75;;;;;;;;;;5067883;28;20601;-75
2023/02/16 12:41:45;;;;;;;20.77;8.32;;;;;;;;;;5069095;28;20082;-75
2023/02/16 12:44:15;;;;;;;20.88;9.60;;;;;;;;;;5071009;28;20099;-74
2023/02/16 12:46:42;;;;;;;26.08;9.40;;;;;;;;;;5061624;28;20417;-75
2023/02/16 12:49:26;;;;;;;15.88;7.60;;;;;;;;;;5069684;28;20028;-74
2023/02/16 12:51:59;;;;;;;19.05;7.57;;;;;;;;;;5072470;28;20365;-75
2023/02/16 12:54:28;;;;;;;21.73;8.27;;;;;;;;;;5070504;28;20624;-74
2023/02/16 12:56:53;;;;;;;20.48;8.77;;;;;;;;;;5062106;28;20040;-75
2023/02/16 12:59:32;;;;;;;18.17;8.10;;;;;;;;;;5060486;28;20109;-75
2023/02/16 13:01:58;;;;;;;16.05;6.25;;;;;;;;;;5062934;28;20021;-75
2023/02/16 13:04:28;;;;;;;27.52;11.48;;;;;;;;;;5068985;28;20372;-75
2023/02/16 13:07:01;;;;;;;20.73;8.52;;;;;;;;;;5070111;28;20092;-74
2023/02/16 13:09:26;;;;;;;23.02;9.60;;;;;;;;;;5065980;28;20381;-75
2023/02/16 13:11:55;;;;;;;20.35;3.95;;;;;;;;;;5069761;28;20024;-75
2023/02/16 13:14:26;;;;;;;23.13;9.52;;;;;;;;;;5072131;28;20024;-74
2023/02/16 13:16:56;;;;;;;12.35;4.22;;;;;;;;;;5068359;28;20025;-75
2023/02/16 13:19:22;;;;;;;21.30;8.55;;;;;;;;;;5070011;28;20082;-75
2023/02/16 13:22:06;;;;;;;14.90;6.50;;;;;;;;;;5071863;28;20391;-75
2023/02/16 13:24:31;;;;;;;28.23;10.65;;;;;;;;;;5072041;28;20464;-74
2023/02/16 13:27:15;;;;;;;23.38;9.90;;;;;;;;;;5072133;28;20031;-74
2023/02/16 13:29:40;;;;;;;26.80;10.25;;;;;;;;;;5070482;28;20103;-75
2023/02/16 13:32:20;;;;;;;25.63;10.77;;;;;;;;;;5071858;28;20107;-75
2023/02/16 13:35:01;;;;;;;23.55;10.15;;;;;;;;;;5069223;28;20145;-75
2023/02/16 13:37:49;;;;;;;17.23;7.97;;;;;;;;;;5071362;28;20018;-75
2023/02/16 13:40:21;;;;;;;21.88;7.30;;;;;;;;;;5061983;28;20059;-75
2023/02/16 13:42:46;;;;;;;23.25;9.32;;;;;;;;;;5070564;28;20099;-75
2023/02/16 13:45:14;;;;;;;17.90;8.40;;;;;;;;;;5063117;28;20101;-75
2023/02/16 13:47:40;;;;;;;26.98;10.27;;;;;;;;;;5070741;28;20027;-75
2023/02/16 13:50:07;;;;;;;20.85;8.88;;;;;;;;;;5071335;28;20024;-75
2023/02/16 13:52:37;;;;;;;19.80;8.93;;;;;;;;;;5069799;28;20074;-75
2023/02/16 13:55:07;;;;;;;18.27;8.48;;;;;;;;;;5071547;28;20052;-75
2023/02/16 13:57:47;;;;;;;20.70;9.07;;;;;;;;;;5075977;28;20030;-75
2023/02/16 14:00:23;;;;;;;20.92;8.55;;;;;;;;;;5091548;28;20044;-75
2023/02/16 14:02:53;;;;;;;20.83;9.10;;;;;;;;;;5085508;28;20013;-75
2023/02/16 14:05:22;;;;;;;31.55;11.52;;;;;;;;;;5087601;28;20479;-75
2023/02/16 14:08:07;;;;;;;29.20;10.73;;;;;;;;;;5091329;28;20378;-75
2023/02/16 14:10:54;;;;;;;26.35;12.63;;;;;;;;;;5091086;28;20378;-75
2023/02/16 14:13:26;;;;;;;23.05;11.98;;;;;;;;;;5082143;28;20387;-75
2023/02/16 14:15:52;;;;;;;26.85;11.00;;;;;;;;;;5064546;28;20016;-75
2023/02/16 14:18:40;;;;;;;21.23;9.43;;;;;;;;;;5090086;28;20023;-75
2023/02/16 14:21:15;;;;;;;22.98;9.20;;;;;;;;;;5085288;28;20032;-75
2023/02/16 14:23:40;;;;;;;21.65;9.65;;;;;;;;;;5090163;28;20024;-75
2023/02/16 14:26:07;;;;;;;22.50;10.23;;;;;;;;;;5082475;28;20366;-75
2023/02/16 14:28:32;;;;;;;21.33;8.55;;;;;;;;;;5087530;28;20502;-75
2023/02/16 14:30:59;;;;;;;25.92;9.43;;;;;;;;;;5090189;28;20111;-75
2023/02/16 14:33:42;;;;;;;22.02;8.68;;;;;;;;;;5080135;28;20490;-75
2023/02/16 14:36:15;;;;;;;19.38;9.40;;;;;;;;;;5090774;28;20052;-75
2023/02/16 14:38:41;;;;;;;17.63;8.02;;;;;;;;;;5091514;28;20024;-75
2023/02/16 14:41:12;;;;;;;18.88;8.32;;;;;;;;;;5089600;28;20352;-75
2023/02/16 14:43:41;;;;;;;22.05;8.20;;;;;;;;;;5075752;28;20021;-75
2023/02/16 14:46:07;;;;;;;21.35;7.82;;;;;;;;;;5070631;28;20024;-75
2023/02/16 14:48:50;;;;;;;20.83;10.90;;;;;;;;;;5070697;28;20025;-75
2023/02/16 14:51:15;;;;;;;17.30;8.43;;;;;;;;;;5054822;28;20111;-75
2023/02/16 14:53:56;;;;;;;19.30;8.75;;;;;;;;;;5072396;28;20427;-75
2023/02/16 14:56:40;;;;;;;16.40;6.88;;;;;;;;;;5061742;28;20024;-75
2023/02/16 14:59:24;;;;;;;17.15;8.43;;;;;;;;;;5074318;28;20468;-75
2023/02/16 15:01:50;;;;;;;16.67;7.63;;;;;;;;;;5074641;28;20405;-75
2023/02/16 15:04:32;;;;;;;15.88;8.10;;;;;;;;;;5073412;28;20118;-75
2023/02/16 15:07:03;;;;;;;17.23;7.10;;;;;;;;;;5074391;28;20028;-75
2023/02/16 15:09:31;;;;;;;15.68;6.95;;;;;;;;;;5072420;28;20036;-75
2023/02/16 15:12:24;;;;;;;14.57;6.70;;;;;;;;;;5074702;28;20509;-75
2023/02/16 15:14:49;;;;;;;17.13;6.80;;;;;;;;;;5073848;28;20024;-77
2023/02/16 15:17:25;;;;;;;14.40;6.82;;;;;;;;;;5072443;28;20074;-75
2023/02/16 15:19:52;;;;;;;20.10;6.97;;;;;;;;;;5072808;28;20380;-75
2023/02/16 15:22:19;;;;;;;19.73;6.30;;;;;;;;;;5083092;28;20016;-75
2023/02/16 15:24:53;;;;;;;15.25;5.82;;;;;;;;;;5093244;28;20035;-75
2023/02/16 15:27:19;;;;;;;15.77;5.47;;;;;;;;;;5092905;28;20066;-75